Time;durP1;ratioP1;P1;durP2;ratioP2;P2;SDS_P1;SDS_P2;PMS_P1;PMS_P2;Temp;Humidity;BMP_temperature;BMP_pressure;BME280_temperature;BME280_humidity;BME280_pressure;Samples;Min_cycle;Max_cycle;Signal;HPM_P1;HPM_P2
2023/02/04 00:01:43;;;;;;;1.33;1.13;;;5.90;99.90;;;;;;5057817;28;20191;-58
2023/02/04 00:04:11;;;;;;;1.07;0.97;;;5.80;99.90;;;;;;5058817;28;20474;-57
2023/02/04 00:06:36;;;;;;;3.23;1.10;;;5.70;99.90;;;;;;5060995;28;20178;-57
2023/02/04 00:09:02;;;;;;;0.67;0.67;;;5.70;99.90;;;;;;5056988;28;20499;-57
2023/02/04 00:11:27;;;;;;;1.20;1.10;;;5.60;99.90;;;;;;5052961;28;20201;-55
2023/02/04 00:13:53;;;;;;;1.23;0.80;;;5.50;99.90;;;;;;5051383;28;20201;-57
2023/02/04 00:16:19;;;;;;;1.50;0.90;;;5.40;99.90;;;;;;5053620;28;20575;-55
2023/02/04 00:18:44;;;;;;;1.33;1.07;;;5.50;99.90;;;;;;5051571;28;20212;-57
2023/02/04 00:21:10;;;;;;;3.40;0.93;;;5.40;99.90;;;;;;5054174;28;20223;-56
2023/02/04 00:23:36;;;;;;;2.40;1.30;;;5.40;99.90;;;;;;5050998;28;20200;-55
2023/02/04 00:26:01;;;;;;;1.37;1.13;;;5.50;99.90;;;;;;5050146;28;20190;-56
2023/02/04 00:28:27;;;;;;;1.40;1.30;;;5.50;99.90;;;;;;5046680;28;20213;-56
2023/02/04 00:30:53;;;;;;;2.63;2.33;;;5.40;99.90;;;;;;5054797;28;20185;-56
2023/02/04 00:33:18;;;;;;;3.53;1.40;;;5.40;99.90;;;;;;5045401;28;20194;-59
2023/02/04 00:35:46;;;;;;;0.87;0.80;;;5.50;93.60;;;;;;5043812;28;20498;-56
2023/02/04 00:38:11;;;;;;;3.50;1.50;;;5.40;41.60;;;;;;5044023;28;20782;-57
2023/02/04 00:40:37;;;;;;;1.60;1.13;;;5.40;4.90;;;;;;5050667;28;20481;-57
2023/02/04 00:43:03;;;;;;;1.27;1.07;;;5.30;1.00;;;;;;5046007;28;20202;-57
2023/02/04 00:45:28;;;;;;;1.30;0.90;;;5.20;1.00;;;;;;5048650;28;20195;-57
2023/02/04 00:47:54;;;;;;;1.83;0.90;;;5.00;1.00;;;;;;5053791;28;20191;-55
2023/02/04 00:50:19;;;;;;;3.17;1.10;;;5.00;1.00;;;;;;5061412;28;20241;-56
2023/02/04 00:52:45;;;;;;;0.90;0.90;;;5.10;1.00;;;;;;5049891;28;20234;-59
2023/02/04 00:55:14;;;;;;;0.80;0.80;;;5.00;1.00;;;;;;5046319;28;20285;-54
2023/02/04 00:57:40;;;;;;;2.20;1.50;;;4.90;1.00;;;;;;5054066;28;20254;-56
2023/02/04 01:00:06;;;;;;;1.40;1.30;;;4.80;1.00;;;;;;5053851;28;20480;-57
2023/02/04 01:02:31;;;;;;;0.80;0.80;;;4.70;1.00;;;;;;5059572;28;20188;-55
2023/02/04 01:04:57;;;;;;;1.27;1.07;;;4.70;1.00;;;;;;5045285;28;20536;-57
2023/02/04 01:07:23;;;;;;;1.43;0.80;;;4.80;1.00;;;;;;5047354;28;20262;-57
2023/02/04 01:09:48;;;;;;;1.10;1.00;;;4.90;1.00;;;;;;5042837;28;20197;-56
2023/02/04 01:12:14;;;;;;;1.57;0.97;;;4.90;1.00;;;;;;5045562;28;20830;-56
2023/02/04 01:14:40;;;;;;;1.13;0.80;;;4.80;1.00;;;;;;5049431;28;20194;-57
2023/02/04 01:17:05;;;;;;;1.37;0.70;;;5.00;1.00;;;;;;5053101;28;20650;-57
2023/02/04 01:19:31;;;;;;;1.43;1.00;;;5.00;1.00;;;;;;5049905;28;20217;-56
2023/02/04 01:21:56;;;;;;;2.00;1.20;;;4.90;1.00;;;;;;5045986;28;20185;-56
2023/02/04 01:24:22;;;;;;;2.10;2.00;;;4.90;1.00;;;;;;5052629;28;20185;-55
2023/02/04 01:26:47;;;;;;;1.17;0.77;;;5.10;1.00;;;;;;5058239;28;20586;-57
2023/02/04 01:29:13;;;;;;;0.93;0.93;;;5.20;1.00;;;;;;5047902;28;20235;-56
2023/02/04 01:31:39;;;;;;;0.80;0.80;;;5.10;1.00;;;;;;5059743;28;20601;-56
2023/02/04 01:34:04;;;;;;;1.73;1.47;;;5.00;1.00;;;;;;5049997;28;20182;-56
2023/02/04 01:36:30;;;;;;;1.53;1.00;;;5.00;1.00;;;;;;5053842;28;20640;-55
2023/02/04 01:38:57;;;;;;;1.53;0.90;;;5.00;1.00;;;;;;5052423;28;20187;-55
2023/02/04 01:41:22;;;;;;;3.77;1.00;;;4.80;1.00;;;;;;5051159;28;20210;-57
2023/02/04 01:43:48;;;;;;;2.10;1.80;;;4.60;1.00;;;;;;5061835;28;20499;-55
2023/02/04 01:46:15;;;;;;;1.60;0.97;;;4.60;1.00;;;;;;5053717;28;20192;-54
2023/02/04 01:48:41;;;;;;;3.00;1.73;;;4.70;1.00;;;;;;5057787;28;21006;-56
2023/02/04 01:51:10;;;;;;;1.73;1.47;;;4.80;1.00;;;;;;5061894;28;20597;-56
2023/02/04 01:53:37;;;;;;;1.60;1.40;;;5.00;1.00;;;;;;5052126;28;21049;-55
2023/02/04 01:56:18;;;;;;;1.30;1.20;;;5.00;1.00;;;;;;5047148;28;20480;-55
2023/02/04 01:58:45;;;;;;;1.60;1.50;;;5.10;1.00;;;;;;5056401;28;20798;-56
2023/02/04 02:01:13;;;;;;;1.40;1.30;;;5.10;1.00;;;;;;5053814;28;20482;-55
2023/02/04 02:03:39;;;;;;;1.73;1.50;;;5.20;1.00;;;;;;5055848;28;20447;-54
2023/02/04 02:06:08;;;;;;;23.27;13.40;;;5.00;1.00;;;;;;5048920;28;20808;-56
2023/02/04 02:08:37;;;;;;;1.40;1.30;;;4.80;1.00;;;;;;5061749;28;20198;-55
2023/02/04 02:11:03;;;;;;;1.43;1.33;;;4.60;1.00;;;;;;5052947;28;20844;-54
2023/02/04 02:13:29;;;;;;;2.37;1.00;;;4.50;1.00;;;;;;5061757;28;20881;-56
2023/02/04 02:15:54;;;;;;;1.33;1.23;;;4.50;1.00;;;;;;5052281;28;20455;-55
2023/02/04 02:18:20;;;;;;;1.57;1.20;;;4.50;1.00;;;;;;5053733;28;20592;-55
2023/02/04 02:20:46;;;;;;;1.20;1.10;;;4.50;1.00;;;;;;5052614;28;20660;-55
2023/02/04 02:23:20;;;;;;;4.30;1.27;;;4.70;1.00;;;;;;5053859;28;20486;-55
2023/02/04 02:25:46;;;;;;;1.17;1.07;;;4.80;1.00;;;;;;5052125;28;20221;-56
2023/02/04 02:28:14;;;;;;;1.23;1.13;;;4.80;1.00;;;;;;5063447;28;20432;-55
2023/02/04 02:30:44;;;;;;;2.60;1.70;;;5.00;1.00;;;;;;5056710;28;20988;-55
2023/02/04 02:33:13;;;;;;;1.50;1.40;;;4.90;1.00;;;;;;5052192;28;20454;-55
2023/02/04 02:35:42;;;;;;;2.00;1.60;;;4.80;1.00;;;;;;5057240;28;20452;-54
2023/02/04 02:38:08;;;;;;;2.07;1.87;;;4.90;1.00;;;;;;5050214;28;20963;-56
2023/02/04 02:40:34;;;;;;;2.53;1.80;;;4.90;1.00;;;;;;5053196;28;20472;-55
2023/02/04 02:43:00;;;;;;;2.10;1.40;;;4.80;1.00;;;;;;5051320;28;20420;-53
2023/02/04 02:45:28;;;;;;;2.80;1.43;;;4.70;1.00;;;;;;5051676;28;20191;-54
2023/02/04 02:47:58;;;;;;;1.73;1.63;;;4.80;1.00;;;;;;5051745;28;20193;-55
2023/02/04 02:50:27;;;;;;;3.90;1.70;;;4.80;1.00;;;;;;5057846;28;20415;-55
2023/02/04 02:52:54;;;;;;;1.33;1.23;;;4.80;1.00;;;;;;5051087;28;20461;-54
2023/02/04 02:55:23;;;;;;;1.50;1.40;;;4.70;1.00;;;;;;5048713;28;20473;-54
2023/02/04 02:57:50;;;;;;;1.83;1.70;;;4.80;1.00;;;;;;5058456;28;20471;-55
2023/02/04 03:00:24;;;;;;;2.10;1.53;;;4.70;1.00;;;;;;5054094;28;20472;-55
2023/02/04 03:02:56;;;;;;;2.10;1.73;;;4.60;1.00;;;;;;5055566;28;20446;-55
2023/02/04 03:05:23;;;;;;;1.47;1.37;;;4.80;1.00;;;;;;5062230;28;20443;-55
2023/02/04 03:07:49;;;;;;;1.50;1.37;;;4.60;1.00;;;;;;5051563;28;20951;-57
2023/02/04 03:10:17;;;;;;;1.77;1.50;;;4.80;1.00;;;;;;5059368;28;20507;-54
2023/02/04 03:12:44;;;;;;;2.10;1.90;;;4.90;1.00;;;;;;5051055;28;20478;-55
2023/02/04 03:15:10;;;;;;;2.00;1.80;;;4.90;1.00;;;;;;5059321;28;20495;-56
2023/02/04 03:17:36;;;;;;;2.20;1.93;;;5.00;1.00;;;;;;5062559;28;20968;-56
2023/02/04 03:20:03;;;;;;;4.07;2.00;;;5.00;1.00;;;;;;5056314;28;21057;-54
2023/02/04 03:22:28;;;;;;;1.93;1.80;;;5.20;1.00;;;;;;5057411;28;20448;-54
2023/02/04 03:24:57;;;;;;;2.03;1.83;;;5.20;1.00;;;;;;5060483;28;20824;-54
2023/02/04 03:27:23;;;;;;;1.70;1.57;;;5.20;1.00;;;;;;5048587;28;20192;-55
2023/02/04 03:29:49;;;;;;;2.00;1.87;;;5.20;1.00;;;;;;5058916;28;20427;-56
2023/02/04 03:32:15;;;;;;;1.70;1.60;;;5.30;1.00;;;;;;5054686;28;20913;-55
2023/02/04 03:34:40;;;;;;;2.20;1.47;;;5.20;1.00;;;;;;5062302;28;20411;-55
2023/02/04 03:37:06;;;;;;;2.27;1.50;;;5.20;1.00;;;;;;5056785;28;20194;-56
2023/02/04 03:39:31;;;;;;;1.43;1.33;;;5.00;1.00;;;;;;5061456;28;20198;-55
2023/02/04 03:41:57;;;;;;;2.67;1.50;;;5.10;1.00;;;;;;5056413;28;20555;-55
2023/02/04 03:44:25;;;;;;;2.10;1.77;;;5.10;1.00;;;;;;5061167;28;20188;-56
2023/02/04 03:46:54;;;;;;;2.13;1.93;;;5.10;1.00;;;;;;5054428;28;20206;-55
2023/02/04 03:49:23;;;;;;;2.07;1.40;;;4.80;1.00;;;;;;5057735;28;20545;-55
2023/02/04 03:51:49;;;;;;;2.30;2.10;;;4.70;1.00;;;;;;5064425;28;20444;-56
2023/02/04 03:54:15;;;;;;;2.23;1.97;;;5.30;1.00;;;;;;5055128;28;20470;-55
2023/02/04 03:56:40;;;;;;;1.93;1.80;;;4.40;1.00;;;;;;5059254;28;20518;-54
2023/02/04 03:59:06;;;;;;;1.63;1.50;;;4.40;1.00;;;;;;5049271;28;21001;-55
2023/02/04 04:01:32;;;;;;;2.80;1.60;;;4.20;1.00;;;;;;5058607;28;20214;-54
2023/02/04 04:03:57;;;;;;;1.70;1.47;;;4.20;1.00;;;;;;5052781;28;20567;-56
2023/02/04 04:06:23;;;;;;;2.20;1.70;;;4.10;1.00;;;;;;5059034;28;20235;-56
2023/02/04 04:08:49;;;;;;;2.10;1.83;;;4.10;1.00;;;;;;5062320;28;20411;-54
2023/02/04 04:11:14;;;;;;;2.10;1.40;;;4.10;1.00;;;;;;5056582;28;20228;-55
2023/02/04 04:13:40;;;;;;;2.27;2.07;;;4.20;1.00;;;;;;5063516;28;20216;-55
2023/02/04 04:16:06;;;;;;;2.40;1.50;;;4.00;1.00;;;;;;5059827;28;20239;-55
2023/02/04 04:18:32;;;;;;;2.20;1.30;;;4.10;1.00;;;;;;5047531;28;20241;-57
2023/02/04 04:20:58;;;;;;;3.83;1.50;;;4.20;1.00;;;;;;5054994;28;20479;-55
2023/02/04 04:23:24;;;;;;;2.00;1.80;;;4.20;1.00;;;;;;5059323;28;20217;-55
2023/02/04 04:25:50;;;;;;;1.33;1.10;;;4.30;1.00;;;;;;5055126;28;20421;-55
2023/02/04 04:28:15;;;;;;;1.40;1.30;;;4.50;1.00;;;;;;5052627;28;20244;-56
2023/02/04 04:30:41;;;;;;;2.20;2.00;;;4.40;1.00;;;;;;5050099;28;20245;-55
2023/02/04 04:33:06;;;;;;;1.60;1.50;;;4.30;1.00;;;;;;5054817;28;20191;-55
2023/02/04 04:35:33;;;;;;;1.57;1.40;;;4.40;1.00;;;;;;5053621;28;20265;-54
2023/02/04 04:38:00;;;;;;;1.90;1.70;;;4.50;1.00;;;;;;5050009;28;20831;-56
2023/02/04 04:40:25;;;;;;;1.27;1.17;;;4.60;1.00;;;;;;5058963;28;20467;-57
2023/02/04 04:42:51;;;;;;;2.33;1.30;;;4.60;1.00;;;;;;5052471;28;20451;-55
2023/02/04 04:45:17;;;;;;;1.40;1.30;;;4.70;1.00;;;;;;5053542;28;20195;-55
2023/02/04 04:47:42;;;;;;;1.83;1.37;;;4.70;1.00;;;;;;5062137;28;20551;-55
2023/02/04 04:50:09;;;;;;;7.43;3.47;;;4.60;1.00;;;;;;5056117;28;20197;-56
2023/02/04 04:52:34;;;;;;;2.77;1.80;;;4.70;1.00;;;;;;5059877;28;20228;-55
2023/02/04 04:55:00;;;;;;;1.30;1.20;;;4.70;1.00;;;;;;5057011;28;20802;-56
2023/02/04 04:57:25;;;;;;;1.47;1.30;;;4.70;1.00;;;;;;5056372;28;20309;-57
2023/02/04 04:59:51;;;;;;;1.70;1.60;;;4.80;1.00;;;;;;5059568;28;20223;-56
2023/02/04 05:02:17;;;;;;;1.37;1.13;;;4.80;1.00;;;;;;5057461;28;20646;-55
2023/02/04 05:04:42;;;;;;;1.83;1.50;;;4.80;1.00;;;;;;5059548;28;20183;-54
2023/02/04 05:07:08;;;;;;;1.60;1.50;;;4.80;1.00;;;;;;5064952;28;20635;-55
2023/02/04 05:09:33;;;;;;;1.77;1.67;;;4.80;1.00;;;;;;5060908;28;20181;-56
2023/02/04 05:11:59;;;;;;;3.00;2.27;;;4.90;1.00;;;;;;5060112;28;20190;-56
2023/02/04 05:14:24;;;;;;;1.93;1.83;;;4.70;1.00;;;;;;5057695;28;20194;-56
2023/02/04 05:16:50;;;;;;;1.80;1.70;;;4.60;1.00;;;;;;5056729;28;20186;-55
2023/02/04 05:19:16;;;;;;;1.90;1.80;;;4.30;1.00;;;;;;5056214;28;20648;-54
2023/02/04 05:21:41;;;;;;;3.37;2.30;;;4.30;1.00;;;;;;5059211;28;20218;-55
2023/02/04 05:24:07;;;;;;;1.80;1.67;;;4.30;1.00;;;;;;5054572;28;20199;-58
2023/02/04 05:26:34;;;;;;;2.30;1.70;;;4.40;1.00;;;;;;5055930;28;20213;-56
2023/02/04 05:28:59;;;;;;;3.50;2.17;;;4.40;1.00;;;;;;5057276;28;20214;-55
2023/02/04 05:31:25;;;;;;;2.40;1.83;;;4.40;1.00;;;;;;5063086;28;20452;-56
2023/02/04 05:33:51;;;;;;;1.70;1.60;;;4.40;1.00;;;;;;5053108;28;20205;-56
2023/02/04 05:36:19;;;;;;;1.60;1.50;;;4.30;1.00;;;;;;5058791;28;20231;-57
2023/02/04 05:38:45;;;;;;;4.33;1.70;;;4.20;1.00;;;;;;5056585;28;20566;-56
2023/02/04 05:41:11;;;;;;;4.63;2.10;;;4.10;1.00;;;;;;5059911;28;20492;-56
2023/02/04 05:43:37;;;;;;;2.13;1.70;;;4.00;1.00;;;;;;5059360;28;20447;-55
2023/02/04 05:46:03;;;;;;;2.43;1.77;;;3.90;1.00;;;;;;5050039;28;20452;-55
2023/02/04 05:48:28;;;;;;;3.60;1.90;;;3.80;1.00;;;;;;5055243;28;20578;-55
2023/02/04 05:50:54;;;;;;;3.20;1.67;;;3.80;1.00;;;;;;5063396;28;20190;-57
2023/02/04 05:53:20;;;;;;;2.13;1.73;;;3.70;1.00;;;;;;5058463;28;20239;-55
2023/02/04 05:55:45;;;;;;;2.00;1.80;;;3.70;1.00;;;;;;5060253;28;20224;-55
2023/02/04 05:58:11;;;;;;;1.87;1.40;;;3.60;1.00;;;;;;5062913;28;20542;-55
2023/02/04 06:00:37;;;;;;;4.90;1.60;;;3.60;1.00;;;;;;5060292;28;20243;-55
2023/02/04 06:03:03;;;;;;;3.77;1.73;;;3.70;1.00;;;;;;5055780;28;20178;-55
2023/02/04 06:05:29;;;;;;;2.40;1.90;;;3.60;1.00;;;;;;5052383;28;20527;-56
2023/02/04 06:07:55;;;;;;;4.03;2.20;;;3.70;1.00;;;;;;5057144;28;20443;-55
2023/02/04 06:10:20;;;;;;;3.00;2.10;;;3.60;1.00;;;;;;5060038;28;20272;-56
2023/02/04 06:12:47;;;;;;;2.90;2.13;;;3.60;1.00;;;;;;5050464;28;20193;-56
2023/02/04 06:15:13;;;;;;;3.80;2.10;;;3.70;1.00;;;;;;5049206;28;20201;-56
2023/02/04 06:17:38;;;;;;;3.53;1.40;;;3.70;1.00;;;;;;5052115;28;20809;-54
2023/02/04 06:20:05;;;;;;;1.50;1.40;;;3.60;1.00;;;;;;5059028;28;20463;-56
2023/02/04 06:22:31;;;;;;;2.10;1.70;;;3.70;1.00;;;;;;5054931;28;20631;-55
2023/02/04 06:24:57;;;;;;;2.00;1.53;;;3.70;1.00;;;;;;5054479;28;20452;-55
2023/02/04 06:27:22;;;;;;;2.30;1.70;;;3.60;1.00;;;;;;5056919;28;20698;-57
2023/02/04 06:29:49;;;;;;;1.90;1.60;;;3.60;1.00;;;;;;5053212;28;20224;-55
2023/02/04 06:32:15;;;;;;;2.57;2.00;;;3.60;1.00;;;;;;5052971;28;20274;-54
2023/02/04 06:34:41;;;;;;;3.30;1.80;;;3.50;1.00;;;;;;5060665;28;21086;-56
2023/02/04 06:37:07;;;;;;;2.20;1.70;;;3.40;1.00;;;;;;5061352;28;20548;-56
2023/02/04 06:39:32;;;;;;;2.60;1.63;;;3.40;1.00;;;;;;5060234;28;20199;-55
2023/02/04 06:41:59;;;;;;;2.80;1.80;;;3.20;1.00;;;;;;5057369;28;20183;-56
2023/02/04 06:44:25;;;;;;;5.03;2.10;;;3.20;1.00;;;;;;5060078;28;20318;-55
2023/02/04 06:46:50;;;;;;;2.27;1.63;;;3.30;1.00;;;;;;5053615;28;20448;-55
2023/02/04 06:49:16;;;;;;;2.83;1.93;;;3.30;1.00;;;;;;5052293;28;20644;-56
2023/02/04 06:51:41;;;;;;;3.03;1.60;;;3.30;1.00;;;;;;5049264;28;20201;-56
2023/02/04 06:54:07;;;;;;;4.70;1.83;;;3.20;1.00;;;;;;5008680;28;1241926;-55
2023/02/04 06:56:33;;;;;;;3.67;1.40;;;3.30;1.00;;;;;;5044324;28;20184;-56
2023/02/04 06:58:58;;;;;;;2.30;1.90;;;3.00;1.00;;;;;;5058503;28;20196;-55
2023/02/04 07:01:24;;;;;;;3.73;1.90;;;2.90;1.00;;;;;;5052416;28;20286;-55
2023/02/04 07:03:49;;;;;;;1.63;1.53;;;3.00;1.00;;;;;;5053744;28;20181;-55
2023/02/04 07:06:15;;;;;;;4.57;2.10;;;2.90;1.00;;;;;;5061431;28;20176;-55
2023/02/04 07:08:41;;;;;;;2.40;1.80;;;3.00;1.00;;;;;;5057034;28;20225;-54
2023/02/04 07:11:06;;;;;;;2.57;1.70;;;3.00;1.00;;;;;;5061118;28;20198;-55
2023/02/04 07:13:32;;;;;;;3.23;2.10;;;2.90;1.00;;;;;;5054620;28;20478;-56
2023/02/04 07:15:57;;;;;;;2.30;1.70;;;3.00;1.00;;;;;;5049251;28;20190;-55
2023/02/04 07:18:23;;;;;;;2.30;2.00;;;3.00;1.00;;;;;;5057161;28;20194;-56
2023/02/04 07:20:49;;;;;;;3.33;1.90;;;3.00;1.00;;;;;;5050089;28;20229;-54
2023/02/04 07:23:14;;;;;;;4.00;2.27;;;2.90;1.00;;;;;;5052815;28;20262;-54
2023/02/04 07:25:40;;;;;;;5.50;1.77;;;3.00;1.00;;;;;;5050265;28;20335;-54
2023/02/04 07:28:05;;;;;;;15.27;2.83;;;3.00;1.00;;;;;;5051701;28;20252;-56
2023/02/04 07:30:31;;;;;;;3.03;2.03;;;2.90;1.00;;;;;;5048430;28;20187;-56
2023/02/04 07:32:57;;;;;;;2.83;2.13;;;2.90;1.00;;;;;;5050386;28;20798;-55
2023/02/04 07:35:23;;;;;;;4.80;2.30;;;3.00;1.00;;;;;;5054782;28;20517;-54
2023/02/04 07:37:49;;;;;;;4.10;2.33;;;3.00;1.00;;;;;;5049455;28;20530;-54
2023/02/04 07:40:15;;;;;;;3.63;2.30;;;3.10;1.00;;;;;;5048967;28;20245;-55
2023/02/04 07:42:41;;;;;;;2.03;1.80;;;3.30;1.00;;;;;;5051928;28;20452;-57
2023/02/04 07:45:07;;;;;;;3.90;2.70;;;3.30;1.00;;;;;;5048444;28;20793;-57
2023/02/04 07:47:33;;;;;;;6.07;2.70;;;3.40;1.00;;;;;;5051184;28;20225;-54
2023/02/04 07:49:58;;;;;;;2.53;2.03;;;3.40;1.00;;;;;;5052463;28;20996;-55
2023/02/04 07:52:24;;;;;;;3.33;2.27;;;3.40;1.00;;;;;;5053014;28;20319;-56
2023/02/04 07:54:51;;;;;;;2.90;2.50;;;3.40;1.00;;;;;;5054215;28;20539;-57
2023/02/04 07:57:18;;;;;;;3.23;2.50;;;3.30;1.00;;;;;;5050042;28;20449;-56
2023/02/04 07:59:43;;;;;;;1.77;1.67;;;3.40;1.00;;;;;;5058579;28;20952;-55
2023/02/04 08:02:10;;;;;;;2.17;1.70;;;3.40;1.00;;;;;;5048965;28;20453;-55
2023/02/04 08:04:37;;;;;;;3.07;2.00;;;3.60;1.00;;;;;;5053572;28;20187;-54
2023/02/04 08:07:03;;;;;;;5.17;2.37;;;3.60;1.00;;;;;;5054581;28;20528;-55
2023/02/04 08:09:28;;;;;;;3.00;2.13;;;3.60;1.00;;;;;;5050145;28;20477;-57
2023/02/04 08:11:54;;;;;;;3.83;2.07;;;3.70;1.00;;;;;;5053417;28;20875;-55
2023/02/04 08:14:20;;;;;;;2.10;1.90;;;3.80;1.00;;;;;;5057633;28;20223;-55
2023/02/04 08:16:46;;;;;;;2.80;2.23;;;3.80;1.00;;;;;;5056968;28;20196;-54
2023/02/04 08:19:17;;;;;;;3.83;2.33;;;3.80;1.00;;;;;;5048804;28;20252;-55
2023/02/04 08:21:44;;;;;;;6.53;2.23;;;3.90;1.00;;;;;;5054880;28;20687;-56
2023/02/04 08:24:11;;;;;;;2.90;2.20;;;4.00;1.00;;;;;;5055110;28;20451;-55
2023/02/04 08:26:36;;;;;;;6.53;2.77;;;4.10;1.00;;;;;;5054983;28;20450;-55
2023/02/04 08:29:02;;;;;;;3.90;3.43;;;4.10;1.00;;;;;;5056767;28;20539;-56
2023/02/04 08:31:28;;;;;;;3.23;1.90;;;4.00;1.00;;;;;;5052118;28;20653;-55
2023/02/04 08:33:53;;;;;;;5.27;1.80;;;4.00;1.00;;;;;;5055545;28;20191;-55
2023/02/04 08:36:19;;;;;;;6.23;2.50;;;3.90;1.00;;;;;;5050074;28;20191;-55
2023/02/04 08:38:45;;;;;;;4.50;2.60;;;3.80;1.00;;;;;;5059253;28;20705;-57
2023/02/04 08:41:10;;;;;;;5.53;2.40;;;3.90;1.00;;;;;;5051483;28;20301;-55
2023/02/04 08:43:36;;;;;;;3.50;2.70;;;3.90;1.00;;;;;;5057614;28;20190;-55
2023/02/04 08:46:02;;;;;;;3.60;2.00;;;4.10;1.00;;;;;;5050006;28;20179;-55
2023/02/04 08:48:27;;;;;;;3.10;2.40;;;4.20;1.00;;;;;;5050853;28;20206;-55
2023/02/04 08:50:53;;;;;;;4.83;2.40;;;4.20;1.00;;;;;;5059020;28;20196;-58
2023/02/04 08:53:18;;;;;;;3.67;2.37;;;4.30;1.00;;;;;;5061257;28;20234;-57
2023/02/04 08:55:44;;;;;;;4.60;2.90;;;4.40;1.00;;;;;;5057923;28;20627;-56
2023/02/04 08:58:10;;;;;;;3.43;2.93;;;4.50;1.00;;;;;;5055976;28;20294;-54
2023/02/04 09:00:35;;;;;;;4.40;3.10;;;4.20;1.00;;;;;;5062198;28;20665;-56
2023/02/04 09:03:01;;;;;;;1.80;1.70;;;4.30;1.00;;;;;;5063185;28;20223;-55
2023/02/04 09:05:26;;;;;;;4.20;2.30;;;4.30;1.00;;;;;;5052695;28;20200;-56
2023/02/04 09:07:52;;;;;;;8.00;3.90;;;4.50;1.00;;;;;;5050427;28;20270;-57
2023/02/04 09:10:18;;;;;;;2.80;2.07;;;4.60;1.00;;;;;;5045973;28;20756;-57
2023/02/04 09:12:44;;;;;;;2.90;2.00;;;4.60;1.00;;;;;;5055043;28;20663;-57
2023/02/04 09:15:10;;;;;;;3.37;2.07;;;4.70;1.00;;;;;;5061596;28;20208;-56
2023/02/04 09:17:37;;;;;;;5.23;2.77;;;4.80;1.00;;;;;;5047409;28;20190;-58
2023/02/04 09:20:04;;;;;;;6.17;2.73;;;4.80;1.00;;;;;;5055510;28;20461;-56
2023/02/04 09:22:30;;;;;;;8.10;4.80;;;4.80;1.00;;;;;;5057122;28;20480;-59
2023/02/04 09:24:56;;;;;;;7.43;4.77;;;4.80;1.00;;;;;;5058774;28;20444;-57
2023/02/04 09:27:22;;;;;;;5.50;2.53;;;4.70;1.00;;;;;;5063225;28;20438;-56
2023/02/04 09:29:47;;;;;;;12.40;6.43;;;4.70;1.00;;;;;;5056635;28;20272;-55
2023/02/04 09:32:14;;;;;;;4.00;3.03;;;4.80;1.00;;;;;;5055936;28;20675;-58
2023/02/04 09:34:40;;;;;;;2.50;2.33;;;4.80;1.00;;;;;;5058900;28;20710;-57
2023/02/04 09:37:06;;;;;;;3.60;2.40;;;4.90;1.00;;;;;;5056060;28;20523;-55
2023/02/04 09:39:31;;;;;;;4.27;2.30;;;4.90;1.00;;;;;;5052162;28;20194;-57
2023/02/04 09:41:58;;;;;;;3.17;2.73;;;5.10;1.00;;;;;;5055703;28;20232;-57
2023/02/04 09:44:26;;;;;;;5.00;3.00;;;5.10;1.00;;;;;;5062309;28;20195;-57
2023/02/04 09:46:55;;;;;;;4.47;2.80;;;5.20;1.00;;;;;;5061227;28;20448;-56
2023/02/04 09:49:21;;;;;;;4.00;2.80;;;5.40;1.00;;;;;;5061095;28;20448;-56
2023/02/04 09:51:48;;;;;;;4.10;2.77;;;5.40;1.00;;;;;;5064477;28;20784;-58
2023/02/04 09:54:20;;;;;;;4.40;2.47;;;5.60;1.00;;;;;;5057400;28;20510;-56
2023/02/04 09:56:46;;;;;;;3.67;2.20;;;5.70;1.00;;;;;;5055699;28;20452;-57
2023/02/04 09:59:23;;;;;;;5.33;1.90;;;5.90;1.00;;;;;;5054740;28;20886;-58
2023/02/04 10:02:00;;;;;;;3.30;2.17;;;6.00;1.00;;;;;;5060640;28;21553;-59
2023/02/04 10:04:27;;;;;;;1.90;1.70;;;6.20;1.00;;;;;;5061896;28;20504;-58
2023/02/04 10:06:54;;;;;;;3.97;2.30;;;6.30;1.00;;;;;;5063371;28;20907;-59
2023/02/04 10:09:20;;;;;;;2.13;1.93;;;6.30;1.00;;;;;;5064202;28;20436;-58
2023/02/04 10:11:47;;;;;;;3.00;1.93;;;6.40;1.00;;;;;;5060722;28;20982;-58
2023/02/04 10:14:17;;;;;;;3.90;2.43;;;6.60;1.00;;;;;;5058922;28;20541;-57
2023/02/04 10:16:45;;;;;;;3.70;1.90;;;6.70;1.00;;;;;;5066766;28;20480;-57
2023/02/04 10:19:15;;;;;;;2.20;1.90;;;6.80;1.00;;;;;;5063825;28;20448;-60
2023/02/04 10:21:43;;;;;;;3.83;1.93;;;6.90;1.00;;;;;;5060031;28;20527;-57
2023/02/04 10:24:20;;;;;;;3.93;2.10;;;6.90;1.00;;;;;;5063539;28;20468;-60
2023/02/04 10:26:46;;;;;;;7.87;2.43;;;6.70;1.00;;;;;;5064342;28;20403;-58
2023/02/04 10:29:20;;;;;;;3.47;1.57;;;6.70;1.00;;;;;;5058199;28;20950;-58
2023/02/04 10:31:48;;;;;;;2.80;1.80;;;6.60;1.00;;;;;;5066411;28;20498;-58
2023/02/04 10:34:20;;;;;;;3.00;2.00;;;6.60;1.00;;;;;;5058966;28;20456;-59
2023/02/04 10:36:51;;;;;;;3.97;2.23;;;6.40;1.00;;;;;;5063471;28;21016;-56
2023/02/04 10:39:26;;;;;;;2.00;1.80;;;6.40;1.00;;;;;;5060411;28;20501;-57
2023/02/04 10:41:57;;;;;;;3.77;2.67;;;6.40;1.00;;;;;;5058797;28;20481;-61
2023/02/04 10:44:31;;;;;;;3.47;3.03;;;6.40;1.00;;;;;;5061722;28;20469;-59
2023/02/04 10:47:02;;;;;;;4.37;2.90;;;6.30;1.00;;;;;;5055629;28;20444;-57
2023/02/04 10:49:28;;;;;;;3.73;3.20;;;6.20;1.00;;;;;;5052484;28;20450;-58
2023/02/04 10:51:53;;;;;;;4.97;3.30;;;6.30;1.00;;;;;;5058429;28;20445;-58
2023/02/04 10:54:29;;;;;;;2.00;1.90;;;6.30;1.00;;;;;;5062070;28;21083;-58
2023/02/04 10:57:19;;;;;;;4.37;3.97;;;6.20;1.00;;;;;;5057939;28;20190;-57
2023/02/04 10:59:58;;;;;;;4.53;3.20;;;6.10;1.00;;;;;;5058157;28;20505;-58
2023/02/04 11:02:23;;;;;;;4.80;2.90;;;6.30;1.00;;;;;;5051859;28;20586;-59
2023/02/04 11:04:49;;;;;;;3.70;2.60;;;6.20;1.00;;;;;;5067989;28;20506;-59
2023/02/04 11:07:14;;;;;;;2.77;2.57;;;6.40;1.00;;;;;;5062228;28;20594;-59
2023/02/04 11:09:41;;;;;;;2.10;2.00;;;6.60;1.00;;;;;;5055909;28;20194;-57
2023/02/04 11:12:35;;;;;;;2.73;2.53;;;6.70;1.00;;;;;;5058433;28;20213;-57
2023/02/04 11:15:01;;;;;;;2.83;2.63;;;6.70;1.00;;;;;;5057204;28;20436;-57
2023/02/04 11:17:31;;;;;;;4.00;2.20;;;6.60;1.00;;;;;;5063729;28;20455;-57
2023/02/04 11:19:58;;;;;;;3.93;2.30;;;6.80;1.00;;;;;;5055277;28;20267;-56
2023/02/04 11:22:41;;;;;;;3.00;2.67;;;6.50;1.00;;;;;;5059313;28;20531;-57
2023/02/04 11:25:30;;;;;;;5.07;2.60;;;6.30;1.00;;;;;;5054728;28;20528;-56
2023/02/04 11:27:55;;;;;;;3.67;3.37;;;6.00;1.00;;;;;;5058312;28;20965;-59
2023/02/04 11:30:22;;;;;;;3.63;2.83;;;6.10;1.00;;;;;;5055792;28;20456;-58
2023/02/04 11:33:05;;;;;;;3.13;2.57;;;6.50;1.00;;;;;;5054884;28;20186;-58
2023/02/04 11:35:31;;;;;;;3.30;2.40;;;7.00;1.00;;;;;;5060736;28;20465;-59
2023/02/04 11:37:57;;;;;;;4.37;2.23;;;7.00;1.00;;;;;;5055950;28;20538;-59
2023/02/04 11:40:26;;;;;;;2.93;2.50;;;6.90;1.00;;;;;;5065922;28;20499;-57
2023/02/04 11:43:09;;;;;;;4.10;1.70;;;6.80;1.00;;;;;;5053665;28;20538;-57
2023/02/04 11:45:37;;;;;;;1.80;1.70;;;7.00;1.00;;;;;;5052431;28;20445;-57
2023/02/04 11:48:19;;;;;;;3.00;1.93;;;7.10;1.00;;;;;;5055687;28;20531;-59
2023/02/04 11:50:56;;;;;;;2.27;2.07;;;6.90;1.00;;;;;;5061294;28;20504;-60
2023/02/04 11:53:27;;;;;;;2.50;1.87;;;6.90;1.00;;;;;;5053032;28;20487;-59
2023/02/04 11:55:52;;;;;;;2.20;2.00;;;6.90;1.00;;;;;;5063503;28;20476;-59
2023/02/04 11:58:19;;;;;;;2.40;2.20;;;7.00;1.00;;;;;;5059396;28;20445;-57
2023/02/04 12:00:45;;;;;;;5.60;2.50;;;7.00;1.00;;;;;;5066691;28;20255;-57
2023/02/04 12:03:29;;;;;;;3.40;3.00;;;6.80;1.00;;;;;;5055489;28;20603;-57
2023/02/04 12:05:57;;;;;;;2.30;2.10;;;6.40;1.00;;;;;;5057159;28;20919;-58
2023/02/04 12:08:22;;;;;;;3.37;2.60;;;6.50;1.00;;;;;;5064466;28;20486;-58
2023/02/04 12:11:09;;;;;;;5.00;2.40;;;6.50;1.00;;;;;;5056188;28;20944;-59
2023/02/04 12:13:48;;;;;;;2.70;2.50;;;6.80;1.00;;;;;;5059839;28;20185;-60
2023/02/04 12:16:14;;;;;;;2.43;2.20;;;7.20;1.00;;;;;;5058448;28;20545;-60
2023/02/04 12:18:40;;;;;;;2.27;2.17;;;7.60;1.00;;;;;;5064862;28;20528;-56
2023/02/04 12:21:06;;;;;;;4.00;2.63;;;7.50;1.00;;;;;;5057010;28;20208;-57
2023/02/04 12:23:32;;;;;;;3.87;2.33;;;7.10;1.00;;;;;;5062486;28;20191;-58
2023/02/04 12:25:58;;;;;;;1.97;1.77;;;6.60;1.00;;;;;;5054746;28;20447;-57
2023/02/04 12:28:24;;;;;;;2.03;1.50;;;6.50;1.00;;;;;;5067061;28;20773;-59
2023/02/04 12:30:49;;;;;;;3.10;1.90;;;6.70;1.00;;;;;;5060256;28;20652;-58
2023/02/04 12:33:15;;;;;;;2.03;1.83;;;6.80;1.00;;;;;;5056263;28;20536;-57
2023/02/04 12:35:41;;;;;;;2.17;1.60;;;6.80;1.00;;;;;;5061271;28;20278;-56
2023/02/04 12:38:08;;;;;;;3.37;1.67;;;6.60;1.00;;;;;;5051172;28;20572;-58
2023/02/04 12:40:34;;;;;;;1.73;1.63;;;6.20;1.00;;;;;;5062708;28;20477;-58
2023/02/04 12:42:59;;;;;;;1.87;1.67;;;6.00;1.00;;;;;;5063544;28;20938;-58
2023/02/04 12:45:25;;;;;;;2.87;1.80;;;5.80;1.00;;;;;;5063352;28;20911;-57
2023/02/04 12:47:51;;;;;;;4.27;1.67;;;5.90;1.00;;;;;;5059914;28;20212;-57
2023/02/04 12:50:25;;;;;;;2.40;1.70;;;6.10;1.00;;;;;;5050429;28;20633;-56
2023/02/04 12:52:52;;;;;;;1.80;1.40;;;6.40;1.00;;;;;;5054198;28;20230;-58
2023/02/04 12:55:21;;;;;;;3.13;1.60;;;6.50;1.00;;;;;;5058457;28;20451;-58
2023/02/04 12:57:46;;;;;;;2.20;2.00;;;6.60;1.00;;;;;;5059248;28;20819;-59
2023/02/04 13:00:14;;;;;;;2.30;2.10;;;6.80;1.00;;;;;;5059455;28;20557;-57
2023/02/04 13:02:40;;;;;;;2.93;2.03;;;6.80;1.00;;;;;;5069849;28;20225;-58
2023/02/04 13:05:06;;;;;;;2.60;1.60;;;6.70;1.00;;;;;;5059296;28;20442;-61
2023/02/04 13:07:32;;;;;;;3.93;1.60;;;6.70;1.00;;;;;;5054277;28;20186;-59